sensor_id;sensor_type;location;lat;lon;timestamp;pressure;altitude;pressure_sealevel;temperature;humidity
26635;BME280;14490;54.208;37.686;2023-05-31T00:01:08;98796.88;;;13.36;100.00
26635;BME280;14490;54.208;37.686;2023-05-31T00:03:37;98796.03;;;13.36;100.00
26635;BME280;14490;54.208;37.686;2023-05-31T00:06:06;98757.72;;;13.14;100.00
26635;BME280;14490;54.208;37.686;2023-05-31T00:08:34;98796.03;;;13.36;100.00
26635;BME280;14490;54.208;37.686;2023-05-31T00:11:01;98790.63;;;13.36;100.00
26635;BME280;14490;54.208;37.686;2023-05-31T00:13:29;98753.31;;;13.13;100.00
26635;BME280;14490;54.208;37.686;2023-05-31T00:15:58;98766.38;;;13.18;100.00
26635;BME280;14490;54.208;37.686;2023-05-31T00:18:25;98784.16;;;13.29;100.00
26635;BME280;14490;54.208;37.686;2023-05-31T00:20:56;98780.09;;;13.25;100.00
26635;BME280;14490;54.208;37.686;2023-05-31T00:23:23;98782.41;;;13.20;100.00
26635;BME280;14490;54.208;37.686;2023-05-31T00:25:51;98804.34;;;13.17;100.00
26635;BME280;14490;54.208;37.686;2023-05-31T00:28:18;98807.53;;;12.94;100.00
26635;BME280;14490;54.208;37.686;2023-05-31T00:30:45;98813.34;;;12.64;100.00
26635;BME280;14490;54.208;37.686;2023-05-31T00:33:14;98773.66;;;12.21;100.00
26635;BME280;14490;54.208;37.686;2023-05-31T00:35:42;98792.47;;;12.31;100.00
26635;BME280;14490;54.208;37.686;2023-05-31T00:38:09;98806.34;;;12.36;100.00
26635;BME280;14490;54.208;37.686;2023-05-31T00:40:36;98806.34;;;12.36;100.00
26635;BME280;14490;54.208;37.686;2023-05-31T00:43:04;98784.97;;;12.25;100.00
26635;BME280;14490;54.208;37.686;2023-05-31T00:45:33;98809.41;;;12.41;100.00
26635;BME280;14490;54.208;37.686;2023-05-31T00:48:01;98804.31;;;12.38;100.00
26635;BME280;14490;54.208;37.686;2023-05-31T00:50:30;98807.41;;;12.43;100.00
26635;BME280;14490;54.208;37.686;2023-05-31T00:52:59;98804.31;;;12.38;100.00
26635;BME280;14490;54.208;37.686;2023-05-31T00:55:28;98804.88;;;12.41;100.00
26635;BME280;14490;54.208;37.686;2023-05-31T00:57:57;98805.41;;;12.45;100.00
26635;BME280;14490;54.208;37.686;2023-05-31T01:00:24;98805.41;;;12.45;100.00
26635;BME280;14490;54.208;37.686;2023-05-31T01:02:52;98809.94;;;12.44;100.00
26635;BME280;14490;54.208;37.686;2023-05-31T01:05:19;98796.94;;;12.40;100.00
26635;BME280;14490;54.208;37.686;2023-05-31T01:07:48;98801.63;;;12.38;100.00
26635;BME280;14490;54.208;37.686;2023-05-31T01:10:17;98809.66;;;12.47;100.00
26635;BME280;14490;54.208;37.686;2023-05-31T01:13:01;98796.09;;;12.39;100.00
26635;BME280;14490;54.208;37.686;2023-05-31T01:15:38;98798.91;;;12.38;100.00
26635;BME280;14490;54.208;37.686;2023-05-31T01:18:14;98815.03;;;12.47;100.00
26635;BME280;14490;54.208;37.686;2023-05-31T01:20:51;98793.81;;;12.35;100.00
26635;BME280;14490;54.208;37.686;2023-05-31T01:23:34;98804.47;;;12.36;100.00
26635;BME280;14490;54.208;37.686;2023-05-31T01:26:40;98814.50;;;12.44;100.00
26635;BME280;14490;54.208;37.686;2023-05-31T01:29:13;98807.13;;;12.46;100.00
26635;BME280;14490;54.208;37.686;2023-05-31T01:31:45;98802.16;;;12.41;100.00
26635;BME280;14490;54.208;37.686;2023-05-31T01:34:13;98818.72;;;12.46;100.00
26635;BME280;14490;54.208;37.686;2023-05-31T01:36:41;98807.25;;;12.44;100.00
26635;BME280;14490;54.208;37.686;2023-05-31T01:39:10;98790.06;;;12.45;100.00
26635;BME280;14490;54.208;37.686;2023-05-31T01:41:40;98754.53;;;12.15;100.00
26635;BME280;14490;54.208;37.686;2023-05-31T01:44:09;98819.88;;;12.44;100.00
26635;BME280;14490;54.208;37.686;2023-05-31T01:46:38;98818.41;;;12.49;100.00
26635;BME280;14490;54.208;37.686;2023-05-31T01:49:08;98815.59;;;12.51;100.00
26635;BME280;14490;54.208;37.686;2023-05-31T01:51:37;98813.56;;;12.53;100.00
26635;BME280;14490;54.208;37.686;2023-05-31T01:54:05;98785.84;;;12.43;100.00
26635;BME280;14490;54.208;37.686;2023-05-31T01:56:33;98815.81;;;12.57;100.00
26635;BME280;14490;54.208;37.686;2023-05-31T01:59:04;98762.91;;;12.12;100.00
26635;BME280;14490;54.208;37.686;2023-05-31T02:01:34;98685.59;;;11.67;100.00
26635;BME280;14490;54.208;37.686;2023-05-31T02:04:01;98804.00;;;12.41;100.00
26635;BME280;14490;54.208;37.686;2023-05-31T02:06:35;98811.78;;;12.61;100.00
26635;BME280;14490;54.208;37.686;2023-05-31T02:09:03;98825.63;;;12.76;100.00
26635;BME280;14490;54.208;37.686;2023-05-31T02:11:31;98837.03;;;12.88;100.00
26635;BME280;14490;54.208;37.686;2023-05-31T02:13:59;98819.91;;;12.79;100.00
26635;BME280;14490;54.208;37.686;2023-05-31T02:16:27;98838.50;;;12.82;100.00
26635;BME280;14490;54.208;37.686;2023-05-31T02:18:55;98843.88;;;12.65;100.00
26635;BME280;14490;54.208;37.686;2023-05-31T02:21:24;98846.75;;;12.63;100.00
26635;BME280;14490;54.208;37.686;2023-05-31T02:23:51;98828.59;;;12.55;100.00
26635;BME280;14490;54.208;37.686;2023-05-31T02:26:19;98845.81;;;12.72;100.00
26635;BME280;14490;54.208;37.686;2023-05-31T02:28:47;98838.66;;;12.63;100.00
26635;BME280;14490;54.208;37.686;2023-05-31T02:31:14;98839.63;;;12.62;100.00
26635;BME280;14490;54.208;37.686;2023-05-31T02:33:43;98847.91;;;12.78;100.00
26635;BME280;14490;54.208;37.686;2023-05-31T02:36:11;98853.06;;;12.89;100.00
26635;BME280;14490;54.208;37.686;2023-05-31T02:38:39;98817.13;;;12.71;100.00
26635;BME280;14490;54.208;37.686;2023-05-31T02:41:06;98795.09;;;12.58;100.00
26635;BME280;14490;54.208;37.686;2023-05-31T02:43:34;98832.06;;;12.83;100.00
26635;BME280;14490;54.208;37.686;2023-05-31T02:46:01;98842.88;;;12.83;100.00
26635;BME280;14490;54.208;37.686;2023-05-31T02:48:29;98795.09;;;12.58;100.00
26635;BME280;14490;54.208;37.686;2023-05-31T02:50:57;98847.19;;;12.94;100.00
26635;BME280;14490;54.208;37.686;2023-05-31T02:53:25;98832.91;;;13.01;100.00
26635;BME280;14490;54.208;37.686;2023-05-31T02:55:53;98854.72;;;13.26;100.00
26635;BME280;14490;54.208;37.686;2023-05-31T02:58:21;98841.59;;;13.31;100.00
26635;BME280;14490;54.208;37.686;2023-05-31T03:00:48;98842.41;;;13.49;100.00
26635;BME280;14490;54.208;37.686;2023-05-31T03:03:16;98849.28;;;13.69;100.00
26635;BME280;14490;54.208;37.686;2023-05-31T03:05:47;98853.41;;;13.89;100.00
26635;BME280;14490;54.208;37.686;2023-05-31T03:08:16;98853.91;;;14.18;100.00
26635;BME280;14490;54.208;37.686;2023-05-31T03:10:43;98842.44;;;14.24;100.00
26635;BME280;14490;54.208;37.686;2023-05-31T03:13:11;98838.78;;;14.42;100.00
26635;BME280;14490;54.208;37.686;2023-05-31T03:15:38;98850.31;;;14.52;100.00
26635;BME280;14490;54.208;37.686;2023-05-31T03:18:05;98852.69;;;14.63;100.00
26635;BME280;14490;54.208;37.686;2023-05-31T03:20:33;98852.69;;;14.47;100.00
26635;BME280;14490;54.208;37.686;2023-05-31T03:23:00;98828.16;;;14.14;100.00
26635;BME280;14490;54.208;37.686;2023-05-31T03:25:29;98839.63;;;14.00;100.00
26635;BME280;14490;54.208;37.686;2023-05-31T03:27:56;98852.97;;;14.02;100.00
26635;BME280;14490;54.208;37.686;2023-05-31T03:30:24;98845.72;;;14.10;100.00
26635;BME280;14490;54.208;37.686;2023-05-31T03:32:51;98856.28;;;14.21;100.00
26635;BME280;14490;54.208;37.686;2023-05-31T03:35:19;98868.03;;;14.38;100.00
26635;BME280;14490;54.208;37.686;2023-05-31T03:37:46;98863.19;;;14.50;100.00
26635;BME280;14490;54.208;37.686;2023-05-31T03:40:14;98854.34;;;14.40;100.00
26635;BME280;14490;54.208;37.686;2023-05-31T03:42:43;98868.59;;;14.50;100.00
26635;BME280;14490;54.208;37.686;2023-05-31T03:45:10;98861.09;;;14.36;100.00
26635;BME280;14490;54.208;37.686;2023-05-31T03:47:37;98854.56;;;14.20;100.00
26635;BME280;14490;54.208;37.686;2023-05-31T03:50:06;98887.03;;;14.46;100.00
26635;BME280;14490;54.208;37.686;2023-05-31T03:52:33;98855.72;;;14.52;100.00
26635;BME280;14490;54.208;37.686;2023-05-31T03:55:03;98875.53;;;14.60;100.00
26635;BME280;14490;54.208;37.686;2023-05-31T03:57:31;98867.41;;;14.68;100.00
26635;BME280;14490;54.208;37.686;2023-05-31T04:00:00;98877.78;;;14.65;100.00
26635;BME280;14490;54.208;37.686;2023-05-31T04:02:29;98869.59;;;14.49;100.00
26635;BME280;14490;54.208;37.686;2023-05-31T04:04:57;98880.50;;;14.31;100.00
26635;BME280;14490;54.208;37.686;2023-05-31T04:07:29;98881.09;;;14.43;100.00
26635;BME280;14490;54.208;37.686;2023-05-31T04:09:58;98854.81;;;14.35;100.00
26635;BME280;14490;54.208;37.686;2023-05-31T04:12:30;98869.91;;;14.38;100.00
26635;BME280;14490;54.208;37.686;2023-05-31T04:15:00;98859.41;;;14.35;100.00
26635;BME280;14490;54.208;37.686;2023-05-31T04:17:31;98867.13;;;14.30;100.00
26635;BME280;14490;54.208;37.686;2023-05-31T04:19:58;98877.94;;;14.30;100.00
26635;BME280;14490;54.208;37.686;2023-05-31T04:22:26;98861.09;;;14.36;100.00
26635;BME280;14490;54.208;37.686;2023-05-31T04:24:53;98836.94;;;14.50;100.00
26635;BME280;14490;54.208;37.686;2023-05-31T04:27:23;98835.09;;;14.75;100.00
26635;BME280;14490;54.208;37.686;2023-05-31T04:29:53;98846.97;;;15.14;100.00
26635;BME280;14490;54.208;37.686;2023-05-31T04:32:25;98827.66;;;15.33;100.00
26635;BME280;14490;54.208;37.686;2023-05-31T04:34:53;98820.69;;;15.47;100.00
26635;BME280;14490;54.208;37.686;2023-05-31T04:37:24;98854.25;;;15.46;100.00
26635;BME280;14490;54.208;37.686;2023-05-31T04:39:54;98838.84;;;15.06;100.00
26635;BME280;14490;54.208;37.686;2023-05-31T04:42:22;98839.88;;;14.97;100.00
26635;BME280;14490;54.208;37.686;2023-05-31T04:44:50;98846.31;;;14.88;100.00
26635;BME280;14490;54.208;37.686;2023-05-31T04:47:25;98823.59;;;14.81;100.00
26635;BME280;14490;54.208;37.686;2023-05-31T04:49:54;98826.81;;;14.93;100.00
26635;BME280;14490;54.208;37.686;2023-05-31T04:52:23;98839.19;;;15.03;100.00
26635;BME280;14490;54.208;37.686;2023-05-31T04:54:53;98838.16;;;14.96;100.00
26635;BME280;14490;54.208;37.686;2023-05-31T04:57:20;98824.81;;;14.95;100.00
26635;BME280;14490;54.208;37.686;2023-05-31T04:59:49;98802.97;;;14.88;100.00
26635;BME280;14490;54.208;37.686;2023-05-31T05:02:17;98822.59;;;15.22;100.00
26635;BME280;14490;54.208;37.686;2023-05-31T05:04:46;98834.78;;;15.26;100.00
26635;BME280;14490;54.208;37.686;2023-05-31T05:07:14;98825.31;;;15.22;100.00
26635;BME280;14490;54.208;37.686;2023-05-31T05:09:43;98817.50;;;15.27;100.00
26635;BME280;14490;54.208;37.686;2023-05-31T05:15:17;98749.59;;;15.76;100.00
26635;BME280;14490;54.208;37.686;2023-05-31T05:17:45;98803.06;;;16.37;100.00
26635;BME280;14490;54.208;37.686;2023-05-31T05:20:14;98787.06;;;16.11;100.00
26635;BME280;14490;54.208;37.686;2023-05-31T05:22:41;98804.00;;;16.21;100.00
26635;BME280;14490;54.208;37.686;2023-05-31T05:25:09;98820.56;;;16.34;100.00
26635;BME280;14490;54.208;37.686;2023-05-31T05:27:37;98818.56;;;16.20;100.00
26635;BME280;14490;54.208;37.686;2023-05-31T05:30:06;98803.34;;;16.11;100.00
26635;BME280;14490;54.208;37.686;2023-05-31T05:32:35;98776.31;;;15.87;100.00
26635;BME280;14490;54.208;37.686;2023-05-31T05:35:03;98778.19;;;15.95;100.00
26635;BME280;14490;54.208;37.686;2023-05-31T05:37:33;98787.47;;;16.00;100.00
26635;BME280;14490;54.208;37.686;2023-05-31T05:40:00;98772.19;;;16.07;100.00
26635;BME280;14490;54.208;37.686;2023-05-31T05:42:28;98762.75;;;16.26;100.00
26635;BME280;14490;54.208;37.686;2023-05-31T05:44:57;98774.28;;;16.51;100.00
26635;BME280;14490;54.208;37.686;2023-05-31T05:47:25;98758.25;;;16.64;100.00
26635;BME280;14490;54.208;37.686;2023-05-31T05:49:52;98748.78;;;16.82;100.00
26635;BME280;14490;54.208;37.686;2023-05-31T05:52:19;98758.88;;;17.11;100.00
26635;BME280;14490;54.208;37.686;2023-05-31T05:54:48;98752.84;;;17.01;100.00
26635;BME280;14490;54.208;37.686;2023-05-31T05:57:16;98741.38;;;16.91;100.00
26635;BME280;14490;54.208;37.686;2023-05-31T05:59:44;98760.56;;;17.12;100.00
26635;BME280;14490;54.208;37.686;2023-05-31T06:02:12;98773.59;;;17.17;100.00
26635;BME280;14490;54.208;37.686;2023-05-31T06:04:39;98764.22;;;17.19;100.00
26635;BME280;14490;54.208;37.686;2023-05-31T06:07:07;98790.44;;;17.49;100.00
26635;BME280;14490;54.208;37.686;2023-05-31T06:09:34;98796.94;;;17.63;100.00
26635;BME280;14490;54.208;37.686;2023-05-31T06:12:04;98792.50;;;17.47;100.00
26635;BME280;14490;54.208;37.686;2023-05-31T06:14:33;98789.16;;;17.08;100.00
26635;BME280;14490;54.208;37.686;2023-05-31T06:17:00;98800.56;;;17.04;100.00
26635;BME280;14490;54.208;37.686;2023-05-31T06:19:28;98802.44;;;17.03;100.00
26635;BME280;14490;54.208;37.686;2023-05-31T06:21:55;98784.75;;;16.84;100.00
26635;BME280;14490;54.208;37.686;2023-05-31T06:24:23;98801.53;;;16.88;100.00
26635;BME280;14490;54.208;37.686;2023-05-31T06:26:50;98794.88;;;16.90;100.00
26635;BME280;14490;54.208;37.686;2023-05-31T06:29:19;98804.06;;;17.12;100.00
26635;BME280;14490;54.208;37.686;2023-05-31T06:31:47;98795.84;;;17.20;100.00
26635;BME280;14490;54.208;37.686;2023-05-31T06:34:14;98788.72;;;17.48;100.00
26635;BME280;14490;54.208;37.686;2023-05-31T06:36:41;98790.31;;;17.66;100.00
26635;BME280;14490;54.208;37.686;2023-05-31T06:39:09;98764.84;;;17.59;100.00
26635;BME280;14490;54.208;37.686;2023-05-31T06:41:37;98780.44;;;17.65;100.00
26635;BME280;14490;54.208;37.686;2023-05-31T06:44:06;98781.16;;;18.02;100.00
26635;BME280;14490;54.208;37.686;2023-05-31T06:46:35;98771.66;;;18.13;100.00
26635;BME280;14490;54.208;37.686;2023-05-31T06:49:03;98780.22;;;18.46;100.00
26635;BME280;14490;54.208;37.686;2023-05-31T06:51:31;98780.13;;;18.39;100.00
26635;BME280;14490;54.208;37.686;2023-05-31T06:53:59;98732.94;;;17.82;100.00
26635;BME280;14490;54.208;37.686;2023-05-31T06:56:27;98771.31;;;17.72;100.00
26635;BME280;14490;54.208;37.686;2023-05-31T06:58:57;98746.25;;;17.47;100.00
26635;BME280;14490;54.208;37.686;2023-05-31T07:01:26;98794.63;;;17.75;100.00
26635;BME280;14490;54.208;37.686;2023-05-31T07:03:59;98791.78;;;17.83;100.00
26635;BME280;14490;54.208;37.686;2023-05-31T07:06:34;98655.09;;;17.08;100.00
26635;BME280;14490;54.208;37.686;2023-05-31T07:09:03;98754.06;;;17.80;100.00
26635;BME280;14490;54.208;37.686;2023-05-31T07:11:39;98794.53;;;18.33;100.00
26635;BME280;14490;54.208;37.686;2023-05-31T07:14:13;98701.25;;;18.10;100.00
26635;BME280;14490;54.208;37.686;2023-05-31T07:16:41;98717.75;;;18.23;100.00
26635;BME280;14490;54.208;37.686;2023-05-31T07:19:16;98805.38;;;18.63;100.00
26635;BME280;14490;54.208;37.686;2023-05-31T07:25:55;98765.91;;;18.59;100.00
26635;BME280;14490;54.208;37.686;2023-05-31T07:32:21;98794.69;;;19.31;100.00
26635;BME280;14490;54.208;37.686;2023-05-31T07:34:51;98789.63;;;19.28;100.00
26635;BME280;14490;54.208;37.686;2023-05-31T07:37:34;98775.88;;;19.15;100.00
26635;BME280;14490;54.208;37.686;2023-05-31T07:40:01;98756.56;;;18.89;100.00
26635;BME280;14490;54.208;37.686;2023-05-31T07:42:30;98770.03;;;18.90;100.00
26635;BME280;14490;54.208;37.686;2023-05-31T07:44:58;98723.72;;;18.76;100.00
26635;BME280;14490;54.208;37.686;2023-05-31T07:47:27;98768.59;;;19.43;100.00
26635;BME280;14490;54.208;37.686;2023-05-31T07:50:01;98767.47;;;20.00;100.00
26635;BME280;14490;54.208;37.686;2023-05-31T07:52:37;98764.56;;;20.08;100.00
26635;BME280;14490;54.208;37.686;2023-05-31T07:55:06;98655.03;;;19.42;100.00
26635;BME280;14490;54.208;37.686;2023-05-31T07:57:34;98761.59;;;20.03;100.00
26635;BME280;14490;54.208;37.686;2023-05-31T08:00:02;98773.50;;;19.54;100.00
26635;BME280;14490;54.208;37.686;2023-05-31T08:02:30;98757.81;;;19.35;100.00
26635;BME280;14490;54.208;37.686;2023-05-31T08:04:59;98685.41;;;19.05;100.00
26635;BME280;14490;54.208;37.686;2023-05-31T08:07:30;98696.03;;;19.28;100.00
26635;BME280;14490;54.208;37.686;2023-05-31T08:09:57;98727.41;;;19.73;100.00
26635;BME280;14490;54.208;37.686;2023-05-31T08:12:28;98762.00;;;20.00;100.00
26635;BME280;14490;54.208;37.686;2023-05-31T08:14:55;98700.56;;;19.14;100.00
26635;BME280;14490;54.208;37.686;2023-05-31T08:17:23;98762.34;;;19.00;100.00
26635;BME280;14490;54.208;37.686;2023-05-31T08:23:40;98727.13;;;18.78;100.00
26635;BME280;14490;54.208;37.686;2023-05-31T08:26:47;98615.13;;;17.88;100.00
26635;BME280;14490;54.208;37.686;2023-05-31T08:29:44;98610.72;;;17.66;100.00
26635;BME280;14490;54.208;37.686;2023-05-31T08:32:45;98628.63;;;17.31;100.00
26635;BME280;14490;54.208;37.686;2023-05-31T08:35:26;98769.16;;;17.97;100.00
26635;BME280;14490;54.208;37.686;2023-05-31T08:37:55;98761.44;;;18.00;100.00
26635;BME280;14490;54.208;37.686;2023-05-31T08:40:24;98776.03;;;18.29;100.00
26635;BME280;14490;54.208;37.686;2023-05-31T08:42:55;98774.97;;;18.44;100.00
26635;BME280;14490;54.208;37.686;2023-05-31T08:45:29;98787.47;;;18.53;100.00
26635;BME280;14490;54.208;37.686;2023-05-31T08:48:02;98792.25;;;18.51;100.00
26635;BME280;14490;54.208;37.686;2023-05-31T08:50:35;98794.34;;;18.49;100.00
26635;BME280;14490;54.208;37.686;2023-05-31T08:53:06;98710.25;;;18.11;100.00
26635;BME280;14490;54.208;37.686;2023-05-31T08:55:35;98774.34;;;18.64;100.00
26635;BME280;14490;54.208;37.686;2023-05-31T08:58:04;98783.97;;;18.60;100.00
26635;BME280;14490;54.208;37.686;2023-05-31T09:00:33;98804.06;;;18.59;100.00
26635;BME280;14490;54.208;37.686;2023-05-31T09:03:05;98766.97;;;18.43;100.00
26635;BME280;14490;54.208;37.686;2023-05-31T09:05:33;98790.59;;;18.72;100.00
26635;BME280;14490;54.208;37.686;2023-05-31T09:08:00;98816.69;;;18.60;100.00
26635;BME280;14490;54.208;37.686;2023-05-31T09:10:30;98811.91;;;18.32;100.00
26635;BME280;14490;54.208;37.686;2023-05-31T09:12:57;98796.06;;;18.21;100.00
26635;BME280;14490;54.208;37.686;2023-05-31T09:15:25;98795.16;;;18.14;100.00
26635;BME280;14490;54.208;37.686;2023-05-31T09:17:55;98797.66;;;18.16;100.00
26635;BME280;14490;54.208;37.686;2023-05-31T09:20:30;98795.56;;;18.32;100.00
26635;BME280;14490;54.208;37.686;2023-05-31T09:23:02;98793.72;;;18.69;100.00
26635;BME280;14490;54.208;37.686;2023-05-31T09:25:44;98788.69;;;19.15;100.00
26635;BME280;14490;54.208;37.686;2023-05-31T09:28:12;98796.63;;;19.37;100.00
26635;BME280;14490;54.208;37.686;2023-05-31T09:30:40;98795.44;;;19.19;100.00
26635;BME280;14490;54.208;37.686;2023-05-31T09:33:08;98791.53;;;19.06;100.00
26635;BME280;14490;54.208;37.686;2023-05-31T09:35:36;98778.88;;;19.20;100.00
26635;BME280;14490;54.208;37.686;2023-05-31T09:38:04;98798.84;;;18.99;100.00
26635;BME280;14490;54.208;37.686;2023-05-31T09:40:33;98814.84;;;18.67;100.00
26635;BME280;14490;54.208;37.686;2023-05-31T09:43:02;98766.72;;;18.02;100.00
26635;BME280;14490;54.208;37.686;2023-05-31T09:45:29;98794.88;;;17.80;100.00
26635;BME280;14490;54.208;37.686;2023-05-31T09:47:57;98759.13;;;17.54;100.00
26635;BME280;14490;54.208;37.686;2023-05-31T09:50:25;98798.81;;;17.92;100.00
26635;BME280;14490;54.208;37.686;2023-05-31T09:52:56;98799.44;;;18.23;100.00
26635;BME280;14490;54.208;37.686;2023-05-31T09:55:38;98788.50;;;18.52;100.00
26635;BME280;14490;54.208;37.686;2023-05-31T09:58:08;98803.94;;;18.67;100.00
26635;BME280;14490;54.208;37.686;2023-05-31T10:00:43;98813.22;;;18.36;100.00
26635;BME280;14490;54.208;37.686;2023-05-31T10:03:12;98801.16;;;18.10;100.00
26635;BME280;14490;54.208;37.686;2023-05-31T10:05:40;98800.16;;;17.96;100.00
26635;BME280;14490;54.208;37.686;2023-05-31T10:08:07;98817.88;;;18.07;100.00
26635;BME280;14490;54.208;37.686;2023-05-31T10:10:35;98792.03;;;18.17;100.00
26635;BME280;14490;54.208;37.686;2023-05-31T10:13:03;98806.72;;;18.52;100.00
26635;BME280;14490;54.208;37.686;2023-05-31T10:15:33;98796.31;;;18.41;100.00
26635;BME280;14490;54.208;37.686;2023-05-31T10:18:03;98744.69;;;17.68;100.00
26635;BME280;14490;54.208;37.686;2023-05-31T10:20:38;98822.31;;;17.93;100.00
26635;BME280;14490;54.208;37.686;2023-05-31T10:23:11;98793.16;;;17.49;100.00
26635;BME280;14490;54.208;37.686;2023-05-31T10:25:50;98762.09;;;17.29;100.00
26635;BME280;14490;54.208;37.686;2023-05-31T10:28:27;98831.00;;;17.59;100.00
26635;BME280;14490;54.208;37.686;2023-05-31T10:30:58;98809.78;;;17.55;100.00
26635;BME280;14490;54.208;37.686;2023-05-31T10:33:28;98806.03;;;17.85;100.00
26635;BME280;14490;54.208;37.686;2023-05-31T10:35:56;98820.59;;;18.07;100.00
26635;BME280;14490;54.208;37.686;2023-05-31T10:38:28;98832.69;;;18.04;100.00
26635;BME280;14490;54.208;37.686;2023-05-31T10:41:06;98797.38;;;18.25;100.00
26635;BME280;14490;54.208;37.686;2023-05-31T10:43:38;98826.28;;;18.98;100.00
26635;BME280;14490;54.208;37.686;2023-05-31T10:46:12;98830.03;;;18.76;100.00
26635;BME280;14490;54.208;37.686;2023-05-31T10:48:50;98799.59;;;18.36;100.00
26635;BME280;14490;54.208;37.686;2023-05-31T10:51:19;98858.88;;;18.49;100.00
26635;BME280;14490;54.208;37.686;2023-05-31T10:53:49;98822.94;;;17.66;100.00
26635;BME280;14490;54.208;37.686;2023-05-31T10:56:17;98855.72;;;18.01;100.00
26635;BME280;14490;54.208;37.686;2023-05-31T10:58:48;98862.75;;;18.25;100.00
26635;BME280;14490;54.208;37.686;2023-05-31T11:01:18;98842.88;;;18.61;100.00
26635;BME280;14490;54.208;37.686;2023-05-31T11:03:52;98797.38;;;18.25;100.00
26635;BME280;14490;54.208;37.686;2023-05-31T11:06:23;98809.72;;;18.42;100.00
26635;BME280;14490;54.208;37.686;2023-05-31T11:08:58;98891.06;;;18.75;100.00
26635;BME280;14490;54.208;37.686;2023-05-31T11:11:31;98887.47;;;18.24;100.00
26635;BME280;14490;54.208;37.686;2023-05-31T11:14:34;98794.66;;;17.52;100.00
26635;BME280;14490;54.208;37.686;2023-05-31T11:17:16;98889.28;;;17.79;100.00
26635;BME280;14490;54.208;37.686;2023-05-31T11:19:51;98869.78;;;17.38;100.00
26635;BME280;14490;54.208;37.686;2023-05-31T11:22:25;98848.66;;;17.03;100.00
26635;BME280;14490;54.208;37.686;2023-05-31T11:24:54;98849.38;;;16.97;100.00
26635;BME280;14490;54.208;37.686;2023-05-31T11:27:34;98907.25;;;17.06;100.00
26635;BME280;14490;54.208;37.686;2023-05-31T11:30:10;98876.00;;;16.79;100.00
26635;BME280;14490;54.208;37.686;2023-05-31T11:33:14;98900.47;;;17.24;100.00
26635;BME280;14490;54.208;37.686;2023-05-31T11:35:42;98874.34;;;17.23;100.00
26635;BME280;14490;54.208;37.686;2023-05-31T11:38:10;98892.63;;;17.07;100.00
26635;BME280;14490;54.208;37.686;2023-05-31T11:40:37;98911.97;;;16.50;100.00
26635;BME280;14490;54.208;37.686;2023-05-31T11:43:07;98914.59;;;16.27;100.00
26635;BME280;14490;54.208;37.686;2023-05-31T11:45:42;98874.22;;;16.24;100.00
26635;BME280;14490;54.208;37.686;2023-05-31T11:48:27;98908.03;;;16.61;100.00
26635;BME280;14490;54.208;37.686;2023-05-31T11:50:58;98908.66;;;16.71;100.00
26635;BME280;14490;54.208;37.686;2023-05-31T11:53:26;98921.56;;;16.69;100.00
26635;BME280;14490;54.208;37.686;2023-05-31T11:55:54;98911.31;;;16.79;100.00
26635;BME280;14490;54.208;37.686;2023-05-31T11:58:27;98918.81;;;16.77;100.00
26635;BME280;14490;54.208;37.686;2023-05-31T12:00:57;98922.69;;;16.44;100.00
26635;BME280;14490;54.208;37.686;2023-05-31T12:03:28;98915.91;;;16.39;100.00
26635;BME280;14490;54.208;37.686;2023-05-31T12:05:57;98899.31;;;16.26;100.00
26635;BME280;14490;54.208;37.686;2023-05-31T12:08:26;98941.00;;;16.41;100.00
26635;BME280;14490;54.208;37.686;2023-05-31T12:11:01;98899.97;;;16.36;100.00
26635;BME280;14490;54.208;37.686;2023-05-31T12:13:32;98912.34;;;16.39;100.00
26635;BME280;14490;54.208;37.686;2023-05-31T12:16:03;98934.25;;;16.37;100.00
26635;BME280;14490;54.208;37.686;2023-05-31T12:18:32;98929.88;;;16.20;100.00
26635;BME280;14490;54.208;37.686;2023-05-31T12:21:07;98932.59;;;16.20;100.00
26635;BME280;14490;54.208;37.686;2023-05-31T12:23:54;98948.97;;;16.04;100.00
26635;BME280;14490;54.208;37.686;2023-05-31T12:26:23;98919.84;;;15.25;100.00
26635;BME280;14490;54.208;37.686;2023-05-31T12:28:52;98959.63;;;15.09;100.00
26635;BME280;14490;54.208;37.686;2023-05-31T12:31:22;98918.41;;;14.73;100.00
26635;BME280;14490;54.208;37.686;2023-05-31T12:34:08;98948.84;;;14.59;100.00
26635;BME280;14490;54.208;37.686;2023-05-31T12:36:42;98947.97;;;14.58;100.00
26635;BME280;14490;54.208;37.686;2023-05-31T12:39:12;98967.81;;;14.67;100.00
26635;BME280;14490;54.208;37.686;2023-05-31T12:41:46;98954.50;;;14.40;100.00
26635;BME280;14490;54.208;37.686;2023-05-31T12:44:15;98986.53;;;14.52;100.00
26635;BME280;14490;54.208;37.686;2023-05-31T12:46:46;98963.69;;;14.55;100.00
26635;BME280;14490;54.208;37.686;2023-05-31T12:49:20;98963.47;;;14.82;100.00
26635;BME280;14490;54.208;37.686;2023-05-31T12:51:48;98984.19;;;15.15;100.00
26635;BME280;14490;54.208;37.686;2023-05-31T12:54:24;98964.38;;;15.07;100.00
26635;BME280;14490;54.208;37.686;2023-05-31T12:56:53;98960.81;;;14.98;100.00
26635;BME280;14490;54.208;37.686;2023-05-31T12:59:23;98972.44;;;14.83;100.00
26635;BME280;14490;54.208;37.686;2023-05-31T13:01:51;98976.59;;;14.69;100.00
26635;BME280;14490;54.208;37.686;2023-05-31T13:04:20;98969.50;;;14.68;100.00
26635;BME280;14490;54.208;37.686;2023-05-31T13:06:48;98953.59;;;14.65;100.00
26635;BME280;14490;54.208;37.686;2023-05-31T13:09:15;98964.47;;;14.81;100.00
26635;BME280;14490;54.208;37.686;2023-05-31T13:11:43;98964.50;;;14.89;100.00